createdAt,value
2022-10-22T00:01:59.872Z,99972.09
2022-10-22T00:04:48.701Z,99972.53
2022-10-22T00:07:37.400Z,99959.75
2022-10-22T00:10:27.295Z,99958.72
2022-10-22T00:13:16.043Z,99955.22
2022-10-22T00:16:04.462Z,99945.81
2022-10-22T00:18:53.173Z,99940.44
2022-10-22T00:21:41.605Z,99951.94
2022-10-22T00:24:31.613Z,99946.59
2022-10-22T00:27:21.478Z,99939.63
2022-10-22T00:30:10.728Z,99938.81
2022-10-22T00:32:59.175Z,99924.81
2022-10-22T00:35:48.780Z,99921.09
2022-10-22T00:38:39.674Z,99922.78
2022-10-22T00:41:30.771Z,99931.81
2022-10-22T00:44:56.697Z,99928.53
2022-10-22T00:47:51.620Z,99940.06
2022-10-22T00:50:42.910Z,99933.47
2022-10-22T00:53:33.929Z,99938.19
2022-10-22T00:56:22.358Z,99931.81
2022-10-22T00:59:12.284Z,99927.72
2022-10-22T01:02:00.840Z,99934.91
2022-10-22T01:04:50.625Z,99935.94
2022-10-22T01:07:43.598Z,99936.97
2022-10-22T01:10:47.601Z,99931.84
2022-10-22T01:13:43.462Z,99932.47
2022-10-22T01:16:37.100Z,99934.31
2022-10-22T01:19:35.380Z,99922.78
2022-10-22T01:22:30.391Z,99922.78
2022-10-22T01:25:23.026Z,99931.03
2022-10-22T01:28:19.427Z,99941.72
2022-10-22T01:31:10.666Z,99938.03
2022-10-22T01:34:01.033Z,99939.06
2022-10-22T01:36:49.850Z,99940.09
2022-10-22T01:39:38.533Z,99933.13
2022-10-22T01:42:27.173Z,99927.34
2022-10-22T01:45:16.560Z,99930.59
2022-10-22T01:48:17.223Z,99933.28
2022-10-22T01:51:26.276Z,99927.34
2022-10-22T01:54:23.488Z,99925.91
2022-10-22T01:57:18.549Z,99925.69
2022-10-22T02:00:09.102Z,99920.94
2022-10-22T02:03:01.745Z,99921.97
2022-10-22T02:05:53.610Z,99925.69
2022-10-22T02:08:42.781Z,99931.03
2022-10-22T02:11:31.520Z,99932.06
2022-10-22T02:14:21.038Z,99923.03
2022-10-22T02:17:10.659Z,99922.78
2022-10-22T02:20:00.927Z,99916.03
2022-10-22T02:22:51.209Z,99917.25
2022-10-22T02:25:42.728Z,99924.47
2022-10-22T02:28:36.017Z,99920.94
2022-10-22T02:31:26.261Z,99914.78
2022-10-22T02:34:17.455Z,99916.63
2022-10-22T02:37:06.330Z,99907.16
2022-10-22T02:39:57.262Z,99913.31
2022-10-22T02:42:47.984Z,99907.16
2022-10-22T02:45:37.019Z,99912.50
2022-10-22T02:48:25.379Z,99921.56
2022-10-22T02:51:13.785Z,99911.28
2022-10-22T02:54:02.259Z,99912.94
2022-10-22T02:56:52.052Z,99911.28
2022-10-22T02:59:40.460Z,99898.53
2022-10-22T03:02:28.910Z,99911.28
2022-10-22T03:05:17.634Z,99911.72
2022-10-22T03:08:06.457Z,99934.75
2022-10-22T03:10:54.893Z,99937.41
2022-10-22T03:13:44.647Z,99926.72
2022-10-22T03:16:33.156Z,99920.78
2022-10-22T03:19:21.594Z,99922.41
2022-10-22T03:22:13.400Z,99924.84
2022-10-22T03:25:07.777Z,99916.63
2022-10-22T03:27:57.083Z,99910.69
2022-10-22T03:30:46.921Z,99926.13
2022-10-22T03:33:35.447Z,99910.09
2022-10-22T03:36:23.988Z,99919.16
2022-10-22T03:39:14.297Z,99939.50
2022-10-22T03:42:03.235Z,99943.81
2022-10-22T03:44:51.656Z,99940.09
2022-10-22T03:47:41.804Z,99938.47
2022-10-22T03:50:30.731Z,99936.81
2022-10-22T03:53:19.104Z,99942.16
2022-10-22T03:56:10.253Z,99946.25
2022-10-22T03:58:59.880Z,99947.06
2022-10-22T04:01:48.270Z,99943.81
2022-10-22T04:04:38.765Z,99931.25
2022-10-22T04:07:27.203Z,99937.63
2022-10-22T04:10:15.678Z,99938.47
2022-10-22T04:13:04.078Z,99933.13
2022-10-22T04:15:52.854Z,99929.41
2022-10-22T04:18:42.149Z,99935.94
2022-10-22T04:21:33.017Z,99933.72
2022-10-22T04:24:23.898Z,99940.09
2022-10-22T04:27:12.305Z,99943.81
2022-10-22T04:30:00.719Z,99943.81
2022-10-22T04:32:49.105Z,99950.97
2022-10-22T04:35:40.565Z,99942.97
2022-10-22T04:38:30.328Z,99949.50
2022-10-22T04:41:20.564Z,99943.81
2022-10-22T04:44:13.627Z,99947.06
2022-10-22T04:47:05.486Z,99940.09
2022-10-22T04:49:53.911Z,99940.28
2022-10-22T04:52:42.427Z,99948.09
2022-10-22T04:55:32.211Z,99942.97
2022-10-22T04:58:20.585Z,99933.13
2022-10-22T05:01:13.402Z,99930.44
2022-10-22T05:04:03.141Z,99927.16
2022-10-22T05:06:52.623Z,99929.00
2022-10-22T05:09:41.276Z,99929.84
2022-10-22T05:12:31.066Z,99935.19
2022-10-22T05:15:19.474Z,99933.50
2022-10-22T05:18:07.850Z,99934.34
2022-10-22T05:20:56.282Z,99943.41
2022-10-22T05:23:44.781Z,99940.53
2022-10-22T05:26:33.209Z,99949.16
2022-10-22T05:29:23.577Z,99952.84
2022-10-22T05:32:12.009Z,99961.47
2022-10-22T05:35:00.392Z,99969.69
2022-10-22T05:37:48.847Z,99967.25
2022-10-22T05:40:37.288Z,99974.44
2022-10-22T05:43:25.786Z,99980.63
2022-10-22T05:46:21.243Z,99966.81
2022-10-22T05:49:14.660Z,99966.81
2022-10-22T05:52:03.180Z,99971.72
2022-10-22T05:54:51.620Z,99979.16
2022-10-22T05:57:41.053Z,99978.75
2022-10-22T06:00:29.503Z,99983.88
2022-10-22T06:03:19.307Z,99990.03
2022-10-22T06:06:17.474Z,99994.34
2022-10-22T06:09:08.564Z,99998.88
2022-10-22T06:11:57.973Z,100001.75
2022-10-22T06:14:46.595Z,100011.22
2022-10-22T06:17:36.478Z,100008.75
2022-10-22T06:20:26.365Z,100012.25
2022-10-22T06:23:15.611Z,100005.47
2022-10-22T06:26:04.445Z,100005.28
2022-10-22T06:28:52.925Z,100014.53
2022-10-22T06:31:41.396Z,100010.81
2022-10-22T06:34:29.763Z,100010.63
2022-10-22T06:37:19.640Z,100018.22
2022-10-22T06:40:09.314Z,100016.16
2022-10-22T06:42:57.734Z,100034.88
2022-10-22T06:45:46.135Z,100040.00
2022-10-22T06:48:35.965Z,100035.69
2022-10-22T06:51:24.771Z,100047.44
2022-10-22T06:54:14.523Z,100042.09
2022-10-22T06:57:02.951Z,100049.88
2022-10-22T06:59:51.488Z,100048.63
2022-10-22T07:02:40.207Z,100048.63
2022-10-22T07:05:28.902Z,100060.97
2022-10-22T07:08:17.299Z,100060.56
2022-10-22T07:11:11.931Z,100065.09
2022-10-22T07:14:01.388Z,100068.38
2022-10-22T07:16:49.949Z,100077.44
2022-10-22T07:19:38.350Z,100079.50
2022-10-22T07:22:26.911Z,100083.19
2022-10-22T07:25:15.409Z,100102.09
2022-10-22T07:28:06.601Z,100095.72
2022-10-22T07:30:57.329Z,100095.94
2022-10-22T07:33:45.853Z,100099.22
2022-10-22T07:36:34.475Z,100105.59
2022-10-22T07:39:23.161Z,100104.97
2022-10-22T07:42:14.562Z,100107.88
2022-10-22T07:45:04.815Z,100113.41
2022-10-22T07:47:53.288Z,100121.00
2022-10-22T07:50:41.779Z,100120.59
2022-10-22T07:53:30.199Z,100127.34
2022-10-22T07:56:18.733Z,100130.88
2022-10-22T07:59:07.203Z,100125.94
2022-10-22T08:01:56.913Z,100126.56
2022-10-22T08:04:45.366Z,100132.94
2022-10-22T08:07:33.887Z,100139.28
2022-10-22T08:10:22.351Z,100141.16
2022-10-22T08:13:10.794Z,100145.88
2022-10-22T08:16:00.579Z,100154.69
2022-10-22T08:18:51.481Z,100158.81
2022-10-22T08:21:39.931Z,100151.66
2022-10-22T08:24:28.418Z,100151.44
2022-10-22T08:27:16.783Z,100150.59
2022-10-22T08:30:06.333Z,100149.97
2022-10-22T08:32:55.145Z,100141.59
2022-10-22T08:35:49.514Z,100151.84
2022-10-22T08:38:37.943Z,100153.31
2022-10-22T08:41:26.613Z,100151.00
2022-10-22T08:44:31.787Z,100151.44
2022-10-22T08:47:32.669Z,100146.72
2022-10-22T08:50:28.095Z,100149.97
2022-10-22T08:53:20.390Z,100141.97
2022-10-22T08:56:08.852Z,100151.44
2022-10-22T08:59:01.458Z,100166.44
2022-10-22T09:01:51.650Z,100159.69
2022-10-22T09:04:45.210Z,100162.53
2022-10-22T09:07:36.658Z,100163.34
2022-10-22T09:10:31.544Z,100164.59
2022-10-22T09:13:22.175Z,100160.47
2022-10-22T09:16:17.293Z,100163.34
2022-10-22T09:19:14.363Z,100159.25
2022-10-22T09:22:09.696Z,100167.47
2022-10-22T09:25:01.515Z,100173.81
2022-10-22T09:27:52.552Z,100175.66
2022-10-22T09:30:41.681Z,100173.81
2022-10-22T09:33:33.706Z,100168.31
2022-10-22T09:36:24.163Z,100179.00
2022-10-22T09:39:27.442Z,100170.97
2022-10-22T09:42:18.355Z,100165.41
2022-10-22T09:45:08.965Z,100161.31
2022-10-22T09:48:11.222Z,100155.09
2022-10-22T09:51:04.925Z,100161.91
2022-10-22T09:53:58.641Z,100154.69
2022-10-22T09:56:55.864Z,100170.72
2022-10-22T09:59:45.208Z,100168.69
2022-10-22T10:02:38.988Z,100172.38
2022-10-22T10:05:29.595Z,100177.13
2022-10-22T10:08:18.906Z,100184.31
2022-10-22T10:11:12.684Z,100179.78
2022-10-22T10:14:09.534Z,100181.44
2022-10-22T10:17:00.137Z,100182.06
2022-10-22T10:20:01.454Z,100187.19
2022-10-22T10:22:56.977Z,100193.38
2022-10-22T10:25:51.914Z,100188.41
2022-10-22T10:28:49.411Z,100193.56
2022-10-22T10:31:45.173Z,100191.50
2022-10-22T10:34:42.186Z,100190.09
2022-10-22T10:37:35.696Z,100180.00
2022-10-22T10:40:36.410Z,100182.66
2022-10-22T10:43:31.464Z,100182.25
2022-10-22T10:46:25.175Z,100188.03
2022-10-22T10:49:19.841Z,100188.81
2022-10-22T10:52:18.875Z,100184.72
2022-10-22T10:55:21.834Z,100190.88
2022-10-22T10:58:22.115Z,100200.53
2022-10-22T11:01:17.821Z,100208.97
2022-10-22T11:04:26.461Z,100197.88
2022-10-22T11:07:33.564Z,100203.03
2022-10-22T11:10:29.871Z,100214.75
2022-10-22T11:13:24.584Z,100219.06
2022-10-22T11:16:18.498Z,100209.78
2022-10-22T11:19:11.298Z,100210.63
2022-10-22T11:22:05.227Z,100205.28
2022-10-22T11:24:57.049Z,100202.63
2022-10-22T11:27:50.579Z,100201.16
2022-10-22T11:30:39.955Z,100201.78
2022-10-22T11:33:32.545Z,100202.00
2022-10-22T11:36:23.082Z,100200.75
2022-10-22T11:39:30.546Z,100199.53
2022-10-22T11:42:21.732Z,100192.53
2022-10-22T11:45:30.285Z,100197.44
2022-10-22T11:48:20.633Z,100203.66
2022-10-22T11:51:31.373Z,100200.75
2022-10-22T11:54:32.611Z,100199.31
2022-10-22T11:57:24.319Z,100199.53
2022-10-22T12:00:41.563Z,100190.50
2022-10-22T12:03:41.107Z,100199.94
2022-10-22T12:06:30.300Z,100195.81
2022-10-22T12:09:20.500Z,100198.91
2022-10-22T12:12:16.415Z,100192.34
2022-10-22T12:15:23.521Z,100194.78
2022-10-22T12:21:02.610Z,100194.38
2022-10-22T12:23:52.420Z,100197.47
2022-10-22T12:26:43.579Z,100189.25
2022-10-22T12:29:33.999Z,100193.56
2022-10-22T12:32:22.512Z,100199.53
2022-10-22T12:35:17.892Z,100193.56
2022-10-22T12:38:12.832Z,100195.81
2022-10-22T12:41:01.225Z,100187.41
2022-10-22T12:43:49.660Z,100194.00
2022-10-22T12:46:38.049Z,100187.00
2022-10-22T12:49:29.705Z,100182.47
2022-10-22T12:52:22.721Z,100189.69
2022-10-22T12:55:17.444Z,100194.00
2022-10-22T12:58:07.347Z,100187.19
2022-10-22T13:00:58.420Z,100191.69
2022-10-22T13:03:49.901Z,100186.34
2022-10-22T13:06:38.350Z,100188.25
2022-10-22T13:09:30.157Z,100181.88
2022-10-22T13:12:26.011Z,100195.41
2022-10-22T13:15:23.683Z,100195.81
2022-10-22T13:18:21.047Z,100196.06
2022-10-22T13:21:24.851Z,100197.88
2022-10-22T13:24:22.792Z,100195.03
2022-10-22T13:27:12.654Z,100199.94
2022-10-22T13:30:05.054Z,100199.94
2022-10-22T13:32:55.242Z,100197.06
2022-10-22T13:35:43.668Z,100202.63
2022-10-22T13:38:32.163Z,100210.22
2022-10-22T13:41:22.700Z,100207.13
2022-10-22T13:44:12.558Z,100217.22
2022-10-22T13:47:00.953Z,100204.88
2022-10-22T13:49:49.465Z,100208.38
2022-10-22T13:52:41.111Z,100207.34
2022-10-22T13:55:31.222Z,100213.50
2022-10-22T13:58:21.869Z,100210.41
2022-10-22T14:01:20.472Z,100214.09
2022-10-22T14:04:12.590Z,100216.78
2022-10-22T14:07:03.841Z,100216.78
2022-10-22T14:09:52.568Z,100215.59
2022-10-22T14:12:41.067Z,100207.75
2022-10-22T14:15:30.406Z,100207.13
2022-10-22T14:18:25.552Z,100215.94
2022-10-22T14:21:15.689Z,100207.31
2022-10-22T14:24:06.081Z,100209.75
2022-10-22T14:26:56.716Z,100212.16
2022-10-22T14:29:45.331Z,100209.28
2022-10-22T14:32:33.809Z,100211.91
2022-10-22T14:35:24.384Z,100213.84
2022-10-22T14:38:12.844Z,100212.56
2022-10-22T14:41:03.909Z,100221.22
2022-10-22T14:43:54.882Z,100219.50
2022-10-22T14:46:44.185Z,100221.78
2022-10-22T14:49:33.426Z,100224.63
2022-10-22T14:52:23.204Z,100227.50
2022-10-22T14:55:12.276Z,100229.81
2022-10-22T14:58:02.027Z,100230.19
2022-10-22T15:00:50.553Z,100226.81
2022-10-22T15:03:39.157Z,100239.94
2022-10-22T15:06:27.778Z,100236.03
2022-10-22T15:09:17.605Z,100237.84
2022-10-22T15:12:06.289Z,100241.47
2022-10-22T15:14:54.692Z,100237.78
2022-10-22T15:17:43.645Z,100230.69
2022-10-22T15:20:32.238Z,100244.00
2022-10-22T15:23:20.638Z,100250.31
2022-10-22T15:26:11.220Z,100250.34
2022-10-22T15:29:00.116Z,100254.06
2022-10-22T15:31:51.531Z,100250.31
2022-10-22T15:34:41.177Z,100256.03
2022-10-22T15:37:30.794Z,100261.78
2022-10-22T15:40:19.370Z,100266.56
2022-10-22T15:43:09.298Z,100272.09
2022-10-22T15:46:11.904Z,100278.91
2022-10-22T15:49:00.367Z,100274.56
2022-10-22T15:51:49.337Z,100281.13
2022-10-22T15:54:37.898Z,100285.69
2022-10-22T15:57:26.789Z,100286.50
2022-10-22T16:00:17.386Z,100297.63
2022-10-22T16:03:05.876Z,100295.97
2022-10-22T16:05:54.566Z,100283.22
2022-10-22T16:08:43.014Z,100298.44
2022-10-22T16:11:32.344Z,100298.00
2022-10-22T16:14:23.244Z,100301.34
2022-10-22T16:17:14.237Z,100307.09
2022-10-22T16:20:02.728Z,100307.84
2022-10-22T16:22:51.619Z,100314.00
2022-10-22T16:25:40.294Z,100315.16
2022-10-22T16:28:29.967Z,100324.09
2022-10-22T16:31:19.901Z,100322.88
2022-10-22T16:34:09.969Z,100329.84
2022-10-22T16:36:58.493Z,100330.19
2022-10-22T16:39:47.722Z,100343.34
2022-10-22T16:42:36.533Z,100343.31
2022-10-22T16:45:25.010Z,100339.19
2022-10-22T16:48:13.431Z,100347.28
2022-10-22T16:51:07.611Z,100351.53
2022-10-22T16:53:57.279Z,100354.94
2022-10-22T16:56:45.941Z,100364.25
2022-10-22T16:59:37.721Z,100356.63
2022-10-22T17:02:26.390Z,100359.09
2022-10-22T17:05:14.795Z,100373.31
2022-10-22T17:08:04.605Z,100367.34
2022-10-22T17:10:55.919Z,100377.22
2022-10-22T17:13:44.885Z,100368.97
2022-10-22T17:16:33.370Z,100378.81
2022-10-22T17:19:22.713Z,100384.16
2022-10-22T17:22:14.806Z,100385.00
2022-10-22T17:25:15.723Z,100392.19
2022-10-22T17:28:04.159Z,100385.41
2022-10-22T17:30:52.783Z,100398.53
2022-10-22T17:33:41.193Z,100397.66
2022-10-22T17:36:33.243Z,100402.16
2022-10-22T17:39:24.199Z,100415.34
2022-10-22T17:42:14.190Z,100413.06
2022-10-22T17:45:02.718Z,100426.28
2022-10-22T17:47:52.049Z,100426.53
2022-10-22T17:50:45.734Z,100428.41
2022-10-22T17:53:35.482Z,100429.84
2022-10-22T17:56:28.013Z,100429.03
2022-10-22T17:59:19.042Z,100431.53
2022-10-22T18:02:07.475Z,100443.03
2022-10-22T18:04:55.964Z,100444.91
2022-10-22T18:07:44.391Z,100451.09
2022-10-22T18:10:32.991Z,100444.72
2022-10-22T18:13:21.757Z,100441.44
2022-10-22T18:16:15.510Z,100453.81
2022-10-22T18:19:04.278Z,100457.50
2022-10-22T18:21:52.909Z,100451.53
2022-10-22T18:24:41.479Z,100454.22
2022-10-22T18:27:29.969Z,100463.28
2022-10-22T18:30:18.428Z,100459.56
2022-10-22T18:33:08.275Z,100459.38
2022-10-22T18:35:56.930Z,100459.16
2022-10-22T18:38:45.395Z,100450.50
2022-10-22T18:41:35.876Z,100465.75
2022-10-22T18:44:24.801Z,100463.69
2022-10-22T18:47:13.226Z,100457.06
2022-10-22T18:50:03.278Z,100454.81
2022-10-22T18:52:51.746Z,100452.75
2022-10-22T18:55:41.753Z,100454.19
2022-10-22T18:58:30.168Z,100455.84
2022-10-22T19:01:20.472Z,100456.25
2022-10-22T19:04:08.957Z,100455.22
2022-10-22T19:06:59.579Z,100461.19
2022-10-22T19:09:48.045Z,100456.25
2022-10-22T19:12:37.110Z,100455.81
2022-10-22T19:15:25.569Z,100459.53
2022-10-22T19:18:17.303Z,100456.44
2022-10-22T19:21:06.622Z,100456.44
2022-10-22T19:23:58.050Z,100467.78
2022-10-22T19:26:48.005Z,100469.44
2022-10-22T19:29:36.588Z,100475.19
2022-10-22T19:32:27.503Z,100479.50
2022-10-22T19:35:19.671Z,100477.66
2022-10-22T19:38:08.092Z,100474.13
2022-10-22T19:40:57.984Z,100480.94
2022-10-22T19:43:49.545Z,100481.16
2022-10-22T19:46:38.129Z,100487.16
2022-10-22T19:49:26.952Z,100481.97
2022-10-22T19:52:15.594Z,100483.03
2022-10-22T19:55:04.273Z,100489.44
2022-10-22T19:57:54.113Z,100494.38
2022-10-22T20:00:42.709Z,100493.34
2022-10-22T20:03:31.259Z,100498.25
2022-10-22T20:06:21.727Z,100493.94
2022-10-22T20:09:11.031Z,100501.97
2022-10-22T20:11:59.516Z,100501.13
2022-10-22T20:14:49.299Z,100508.16
2022-10-22T20:17:41.047Z,100505.25
2022-10-22T20:20:29.638Z,100505.25
2022-10-22T20:23:18.215Z,100498.69
2022-10-22T20:26:08.796Z,100505.06
2022-10-22T20:28:57.801Z,100502.41
2022-10-22T20:31:47.989Z,100511.66
2022-10-22T20:34:36.821Z,100510.19
2022-10-22T20:37:25.177Z,100522.97
2022-10-22T20:40:14.607Z,100519.25
2022-10-22T20:43:03.268Z,100522.16
2022-10-22T20:45:51.696Z,100524.00
2022-10-22T20:48:41.451Z,100530.38
2022-10-22T20:51:29.945Z,100525.88
2022-10-22T20:54:21.445Z,100513.09
2022-10-22T20:57:10.071Z,100524.84
2022-10-22T20:59:58.937Z,100529.16
2022-10-22T21:02:47.313Z,100526.69
2022-10-22T21:05:40.035Z,100526.31
2022-10-22T21:08:28.463Z,100522.00
2022-10-22T21:11:17.087Z,100530.81
2022-10-22T21:14:06.109Z,100524.66
2022-10-22T21:16:54.497Z,100535.75
2022-10-22T21:19:43.194Z,100532.44
2022-10-22T21:22:33.048Z,100533.28
2022-10-22T21:25:21.574Z,100532.84
2022-10-22T21:28:10.002Z,100530.22
2022-10-22T21:30:58.430Z,100539.88
2022-10-22T21:33:46.890Z,100535.13
2022-10-22T21:36:36.839Z,100534.09
2022-10-22T21:39:26.718Z,100541.09
2022-10-22T21:42:19.975Z,100537.81
2022-10-22T21:45:12.418Z,100545.22
2022-10-22T21:48:03.278Z,100548.09
2022-10-22T21:50:51.682Z,100552.63
2022-10-22T21:53:40.269Z,100551.78
2022-10-22T21:56:33.403Z,100550.56
2022-10-22T21:59:21.906Z,100551.81
2022-10-22T22:02:10.833Z,100554.88
2022-10-22T22:04:59.301Z,100553.84
2022-10-22T22:07:47.903Z,100558.19
2022-10-22T22:10:36.526Z,100549.34
2022-10-22T22:13:27.100Z,100551.19
2022-10-22T22:16:17.296Z,100553.06
2022-10-22T22:19:08.467Z,100540.91
2022-10-22T22:21:58.269Z,100555.50
2022-10-22T22:24:47.170Z,100551.03
2022-10-22T22:27:39.817Z,100543.59
2022-10-22T22:30:31.009Z,100550.59
2022-10-22T22:33:19.459Z,100537.81
2022-10-22T22:36:08.446Z,100551.22
2022-10-22T22:38:57.198Z,100555.16
2022-10-22T22:41:46.222Z,100562.56
2022-10-22T22:44:34.732Z,100553.28
2022-10-22T22:47:24.622Z,100554.13
2022-10-22T22:50:13.177Z,100553.88
2022-10-22T22:53:01.621Z,100559.63
2022-10-22T22:55:50.264Z,100546.69
2022-10-22T22:58:40.422Z,100551.63
2022-10-22T23:01:30.268Z,100549.34
2022-10-22T23:04:23.633Z,100544.00
2022-10-22T23:07:12.200Z,100546.44
2022-10-22T23:10:00.665Z,100545.22
2022-10-22T23:12:49.063Z,100546.88
2022-10-22T23:15:41.146Z,100547.28
2022-10-22T23:18:29.547Z,100539.88
2022-10-22T23:21:20.577Z,100538.22
2022-10-22T23:24:10.393Z,100539.44
2022-10-22T23:27:01.916Z,100535.75
2022-10-22T23:29:50.376Z,100544.00
2022-10-22T23:32:38.817Z,100540.69
2022-10-22T23:35:27.263Z,100546.88
2022-10-22T23:38:17.091Z,100541.50
2022-10-22T23:41:06.185Z,100547.28
2022-10-22T23:43:54.753Z,100549.53
2022-10-22T23:46:43.499Z,100553.44
2022-10-22T23:49:31.938Z,100558.38
2022-10-22T23:52:20.392Z,100556.34
2022-10-22T23:55:10.842Z,100564.56
2022-10-22T23:57:59.304Z,100560.06
